Historique des stations

Station météo de Paulnay

Altitude de la station : 123 m







Données météorologiques pour le 18/08/2022
Date
Heure
Températures Humidité Point de rosée Vitesse
du vent
Direction Rafales Windchill Pression Pluviométrie
Cumul
Date
Heure
Températures Humidité Point de rosée Vitesse
du vent
Direction Rafales Windchill Pression Pluviométrie
Cumul
18/08/2022 15:1026.1 °C51 %15.1 °C8 km/hSO23 km/h26.11015 hPa0.0 mm
18/08/2022 15:0025.8 °C53 %15.5 °C7 km/hSO19 km/h25.81015 hPa0.0 mm
18/08/2022 14:4025.7 °C54 %15.7 °C6 km/hOSO19 km/h25.71015 hPa0.0 mm
18/08/2022 14:3025.7 °C54 %15.7 °C5 km/hO31 km/h25.71015 hPa0.0 mm
18/08/2022 14:1024.6 °C58 %15.8 °C5 km/hOSO16 km/h24.61015 hPa0.0 mm
18/08/2022 14:0023.7 °C60 %15.4 °C5 km/hONO10 km/h23.71015 hPa0.0 mm
18/08/2022 13:4024.4 °C55 %14.8 °C6 km/hO15 km/h24.41015 hPa0.0 mm
18/08/2022 13:3024.8 °C55 %15.1 °C7 km/hOSO18 km/h24.81015 hPa0.0 mm
18/08/2022 13:0023.4 °C58 %14.7 °C6 km/hOSO16 km/h23.41015 hPa0.0 mm
18/08/2022 12:4023.9 °C62 %16.2 °C6 km/hSO16 km/h23.91015 hPa0.0 mm
18/08/2022 12:3023.2 °C64 %16.0 °C5 km/hONO13 km/h23.21015 hPa0.0 mm
18/08/2022 12:1023.1 °C64 %15.9 °C5 km/hOSO13 km/h23.11015 hPa0.0 mm
18/08/2022 12:0022.7 °C67 %16.2 °C5 km/hSO16 km/h22.71015 hPa0.0 mm
18/08/2022 11:4022.1 °C69 %16.1 °C5 km/hOSO11 km/h22.11015 hPa0.0 mm
18/08/2022 11:3021.5 °C70 %15.8 °C5 km/hOSO13 km/h21.51015 hPa0.0 mm
18/08/2022 11:1020.9 °C75 %16.3 °C5 km/hSO13 km/h20.91015 hPa0.0 mm
18/08/2022 11:0020.3 °C79 %16.5 °C5 km/hSO13 km/h20.31015 hPa0.0 mm
18/08/2022 10:4019.4 °C84 %16.6 °C4 km/hOSO15 km/h19.41015 hPa0.0 mm
18/08/2022 10:3018.5 °C86 %16.1 °C3 km/hOSO16 km/h18.51015 hPa0.0 mm
18/08/2022 10:1017.7 °C88 %15.7 °C2 km/hOSO10 km/h17.71015 hPa0.0 mm
18/08/2022 10:0017.0 °C90 %15.3 °C2 km/hO10 km/h17.01015 hPa0.0 mm
18/08/2022 09:4016.4 °C92 %15.1 °C2 km/hSO8 km/h16.41015 hPa0.0 mm
18/08/2022 09:3015.8 °C93 %14.7 °C2 km/hSSO5 km/h15.81015 hPa0.0 mm
18/08/2022 09:1015.3 °C94 %14.3 °C2 km/hSO6 km/h15.31015 hPa0.0 mm
18/08/2022 09:0014.9 °C94 %13.9 °C1 km/hSSO6 km/h14.91015 hPa0.0 mm
18/08/2022 08:1013.2 °C95 %12.4 °C---13.21014 hPa0.0 mm
18/08/2022 08:0012.5 °C95 %11.7 °C-SO2 km/h12.51014 hPa0.0 mm
18/08/2022 07:4012.6 °C94 %11.7 °C-SO3 km/h12.61014 hPa0.0 mm
18/08/2022 07:1012.6 °C94 %11.7 °C-OSO5 km/h12.61014 hPa0.0 mm
18/08/2022 05:1013.1 °C91 %11.7 °C---13.11013 hPa0.0 mm
18/08/2022 04:4013.8 °C91 %12.4 °C---13.81013 hPa0.0 mm
18/08/2022 04:1013.9 °C90 %12.3 °C---13.91014 hPa0.0 mm
18/08/2022 03:0014.8 °C89 %13.0 °C---14.81014 hPa0.0 mm
18/08/2022 02:1015.4 °C84 %12.7 °C-NE2 km/h15.41014 hPa0.0 mm
18/08/2022 01:4016.1 °C81 %12.8 °C-OSO5 km/h16.11013 hPa0.8 mm
18/08/2022 00:0017.9 °C76 %13.6 °C-O5 km/h17.91013 hPa0.8 mm


Minima :

Température : 12.5 °C
Humidité : 51 %
Point de rosée : 11.7 °C
Vent moyen : 1 km/h
Windchill : 12.5
Pression atm. : 1013 hPa
Maxima :

Température : 26.1 °C
Humidité : 95 %
Point de rosée : 16.6 °C
Vent moyen : 8 km/h
Windchill : 26.1
Pression atm. : 1015 hPa
Rafales max : 31 km/h
Cumul de pluie sur 24H : 0.8 mm

PAULNAY est une commune du département Indre (36).
La station météorologique du réseau de l'association la plus proche de Paulnay est celle de Saint-Michel-en-Brenne



Icône Facebook Association Météo Centre Icône Twitter Association Météo Centre Icône Chaîne Youtube Association Météo Centre Icône contact Association Météo Centre Icône Insta Association Météo Centre